Aérodrome :
LOGIN :

S'inscrire | Disclaimer

   EN    FR    IT 

 










Légende :    VFR   VFR Marginal   IFR   IFR Intensif   IFR Très Intensif
Visi : 
Plafond : 
>= 8 km
>= 3000ft
5 à 8 km
1000 à 3000 ft
1500m à 5 km
500 à 1000 ft
800 à 1500m
200 à 500 ft
< 800m
< 200 ft
Symboles :   Orages  Brouillard  Fortes neiges  Fortes précipitations  Vent > 20 kt
SIGMETs :   Divers  Orages  Givrage  Turbulence  Onde Orograph.  Cendres Volcan.







- Altitude de l'aérodrome : 1273 ft
- Code IATA : LJU


LJLJ - Ljubljana

DERNIER METAR :
  • 211800Z VRB02KT 9999 FEW050 18/16 Q1014 NOSIG

METARs EXPIRÉS :
  • 211730Z 21004KT 190V260 9999 FEW050 20/16 Q1014 NOSIG
  • 211700Z 21003KT 9999 FEW050 22/16 Q1014 NOSIG
  • 211630Z 24004KT 200V260 9999 FEW050 25/15 Q1014 NOSIG
  • 211600Z 23004KT 160V280 9999 FEW050 26/15 Q1014 NOSIG
  • 211530Z VRB02KT 9999 FEW050 26/17 Q1014 NOSIG

TAF TAF LJLJ
Valide du 21 à 18h jusqu'au 22 à 18h UTC


211700Z 2118/2218 27003KT CAVOK
BECMG 2200/2202 BKN040
PROB40
TEMPO 2203/2206 VRB10G20KT 5000 TSRA BKN030CB
BECMG 2206/2208 12005KT 7000 RA SCT010 OVC035
TEMPO 2208/2215 3500 +RA BR SCT005 OVC020
Pas de NOTAMs connus pour ce terrain.



MET'MAP, la Météo Aéronautique d'un coup d'oeil ! - Copyright ORBIFLY Décembre 2007 - Disclaimer

ORBIFLY MET'MAP TEAM :

Programmation & Développement : Alexandra Zaïnal
Conception & Développement : Baudouin d'Aumeries
Co-Programmation & Développement : Marc-Olivier Méhu
Soutien technique & logistique : Manuel Goepfert

Contact : metmap@orbifly.com




SOURCES & CREDITS :

   NOAA